Time,TemperatureF,DewpointF,PressureIn,WindDirection,WindDirectionDegrees,WindSpeedMPH,WindSpeedGustMPH,Humidity,HourlyPrecipIn,Conditions,Clouds,dailyrainin,SoftwareType,DateUTC
2013-03-28 00:04:00,30.6,29.6,30.01,West,270,7.8,-999.0,96,-99.99,,,0.00,Acu-Link.com,2013-03-28 04:04:00,
2013-03-28 00:19:00,30.6,29.6,30.01,WNW,292,4.7,-999.0,96,-99.99,,,0.00,Acu-Link.com,2013-03-28 04:19:00,
2013-03-28 00:35:00,30.4,29.4,30.01,West,270,4.7,-999.0,96,-99.99,,,0.00,Acu-Link.com,2013-03-28 04:35:00,
2013-03-28 00:50:00,30.0,28.8,30.00,West,270,5.8,-999.0,95,-99.99,,,0.00,Acu-Link.com,2013-03-28 04:50:00,
2013-03-28 01:05:00,30.0,28.8,30.00,NNW,337,3.8,-999.0,95,-99.99,,,0.00,Acu-Link.com,2013-03-28 05:05:00,
2013-03-28 01:20:00,29.8,28.3,30.01,West,270,5.8,-999.0,94,-99.99,,,0.00,Acu-Link.com,2013-03-28 05:20:00,
2013-03-28 01:36:00,29.7,28.4,30.01,WSW,247,9.4,-999.0,95,-99.99,,,0.00,Acu-Link.com,2013-03-28 05:36:00,
2013-03-28 01:51:00,29.7,28.4,30.01,West,270,3.8,-999.0,95,-99.99,,,0.00,Acu-Link.com,2013-03-28 05:51:00,
2013-03-28 02:06:00,29.5,28.2,30.00,West,270,6.7,-999.0,95,-99.99,,,0.00,Acu-Link.com,2013-03-28 06:06:00,
2013-03-28 02:21:00,29.5,28.2,30.00,WSW,247,4.7,-999.0,95,-99.99,,,0.00,Acu-Link.com,2013-03-28 06:21:00,
2013-03-28 02:36:00,29.5,28.2,30.01,NW,315,4.7,-999.0,95,-99.99,,,0.00,Acu-Link.com,2013-03-28 06:36:00,
2013-03-28 02:52:00,29.5,28.2,30.01,WSW,247,6.7,-999.0,95,-99.99,,,0.00,Acu-Link.com,2013-03-28 06:52:00,
2013-03-28 03:07:00,29.5,28.5,30.01,West,270,5.8,-999.0,96,-99.99,,,0.00,Acu-Link.com,2013-03-28 07:07:00,
2013-03-28 03:22:00,29.5,28.5,30.01,WNW,292,5.8,-999.0,96,-99.99,,,0.00,Acu-Link.com,2013-03-28 07:22:00,
2013-03-28 03:37:00,29.5,28.5,30.01,West,270,7.4,-999.0,96,-99.99,,,0.00,Acu-Link.com,2013-03-28 07:37:00,
2013-03-28 03:52:00,29.5,28.5,30.01,West,270,7.4,-999.0,96,-99.99,,,0.00,Acu-Link.com,2013-03-28 07:52:00,
2013-03-28 04:08:00,29.5,28.5,30.01,SW,225,5.1,-999.0,96,-99.99,,,0.00,Acu-Link.com,2013-03-28 08:08:00,
2013-03-28 04:23:00,29.5,28.5,30.00,West,270,7.8,-999.0,96,-99.99,,,0.00,Acu-Link.com,2013-03-28 08:23:00,
2013-03-28 04:38:00,29.5,28.5,30.01,SW,225,4.7,-999.0,96,-99.99,,,0.00,Acu-Link.com,2013-03-28 08:38:00,
2013-03-28 04:53:00,29.5,28.7,30.02,WSW,247,6.3,-999.0,97,-99.99,,,0.00,Acu-Link.com,2013-03-28 08:53:00,
2013-03-28 05:08:00,29.7,28.9,30.01,WNW,292,5.8,-999.0,97,-99.99,,,0.00,Acu-Link.com,2013-03-28 09:08:00,
2013-03-28 05:24:00,29.7,28.9,30.01,SSW,202,4.7,-999.0,97,-99.99,,,0.00,Acu-Link.com,2013-03-28 09:24:00,
2013-03-28 05:39:00,29.7,28.9,30.02,West,270,6.3,-999.0,97,-99.99,,,0.00,Acu-Link.com,2013-03-28 09:39:00,
2013-03-28 05:54:00,29.7,28.9,30.02,SW,225,5.1,-999.0,97,-99.99,,,0.00,Acu-Link.com,2013-03-28 09:54:00,
2013-03-28 06:09:00,29.8,29.1,30.01,WNW,292,7.4,-999.0,97,-99.99,,,0.00,Acu-Link.com,2013-03-28 10:09:00,
2013-03-28 06:25:00,29.8,29.1,30.03,NW,315,6.7,-999.0,97,-99.99,,,0.00,Acu-Link.com,2013-03-28 10:25:00,
2013-03-28 06:40:00,30.0,29.3,30.03,North,0,5.8,-999.0,97,-99.99,,,0.00,Acu-Link.com,2013-03-28 10:40:00,
2013-03-28 06:55:00,30.0,29.3,30.03,SW,225,4.7,-999.0,97,-99.99,,,0.00,Acu-Link.com,2013-03-28 10:55:00,
2013-03-28 07:10:00,30.0,29.3,30.04,West,270,6.3,-999.0,97,-99.99,,,0.00,Acu-Link.com,2013-03-28 11:10:00,
2013-03-28 07:25:00,30.2,29.5,30.05,WSW,247,8.9,-999.0,97,-99.99,,,0.00,Acu-Link.com,2013-03-28 11:25:00,
2013-03-28 07:41:00,30.2,29.5,30.05,West,270,8.9,-999.0,97,-99.99,,,0.00,Acu-Link.com,2013-03-28 11:41:00,
2013-03-28 08:11:00,30.6,29.6,30.06,West,270,8.9,-999.0,96,-99.99,,,0.00,Acu-Link.com,2013-03-28 12:11:00,
2013-03-28 08:26:00,30.9,29.7,30.06,WSW,247,6.7,-999.0,95,-99.99,,,0.00,Acu-Link.com,2013-03-28 12:26:00,
2013-03-28 08:41:00,31.5,29.9,30.07,WNW,292,4.3,-999.0,94,-99.99,,,0.00,Acu-Link.com,2013-03-28 12:41:00,
2013-03-28 08:57:00,31.6,30.1,30.07,WNW,292,9.8,-999.0,94,-99.99,,,0.00,Acu-Link.com,2013-03-28 12:57:00,
2013-03-28 09:12:00,32.0,30.2,30.07,West,270,6.3,-999.0,93,-99.99,,,0.00,Acu-Link.com,2013-03-28 13:12:00,
2013-03-28 09:27:00,32.5,30.2,30.07,WSW,247,5.1,-999.0,91,-99.99,,,0.00,Acu-Link.com,2013-03-28 13:27:00,
2013-03-28 09:42:00,33.3,30.4,30.07,West,270,8.3,-999.0,89,-99.99,,,0.00,Acu-Link.com,2013-03-28 13:42:00,
2013-03-28 09:57:00,32.9,30.3,30.08,WSW,247,6.7,-999.0,90,-99.99,,,0.00,Acu-Link.com,2013-03-28 13:57:00,
2013-03-28 10:13:00,33.4,30.3,30.09,West,270,4.3,-999.0,88,-99.99,,,0.00,Acu-Link.com,2013-03-28 14:13:00,
2013-03-28 10:28:00,34.3,30.6,30.09,SW,225,7.8,-999.0,86,-99.99,,,0.00,Acu-Link.com,2013-03-28 14:28:00,
2013-03-28 10:43:00,34.5,30.8,30.09,West,270,5.8,-999.0,86,-99.99,,,0.00,Acu-Link.com,2013-03-28 14:43:00,
2013-03-28 10:58:00,34.7,30.7,30.10,NW,315,7.4,-999.0,85,-99.99,,,0.00,Acu-Link.com,2013-03-28 14:58:00,
2013-03-28 11:14:00,35.1,30.1,30.10,West,270,5.1,-999.0,82,-99.99,,,0.00,Acu-Link.com,2013-03-28 15:14:00,
2013-03-28 11:29:00,35.8,30.8,30.11,WSW,247,8.3,-999.0,82,-99.99,,,0.00,Acu-Link.com,2013-03-28 15:29:00,
2013-03-28 11:44:00,36.1,30.6,30.11,West,270,8.3,-999.0,80,-99.99,,,0.00,Acu-Link.com,2013-03-28 15:44:00,
2013-03-28 11:59:00,36.5,31.2,30.11,SW,225,7.4,-999.0,81,-99.99,,,0.04,Acu-Link.com,2013-03-28 15:59:00,
2013-03-28 12:14:00,37.0,30.5,30.11,WNW,292,8.3,-999.0,77,-99.99,,,0.06,Acu-Link.com,2013-03-28 16:14:00,
2013-03-28 12:30:00,37.4,31.5,30.11,West,270,8.3,-999.0,79,-99.99,,,0.07,Acu-Link.com,2013-03-28 16:30:00,
2013-03-28 12:45:00,38.3,31.7,30.11,SW,225,8.9,-999.0,77,-99.99,,,0.08,Acu-Link.com,2013-03-28 16:45:00,
2013-03-28 13:00:00,39.2,30.9,30.11,West,270,4.7,-999.0,72,-99.99,,,0.09,Acu-Link.com,2013-03-28 17:00:00,
2013-03-28 13:15:00,39.2,30.6,30.11,West,270,7.4,-999.0,71,-99.99,,,0.09,Acu-Link.com,2013-03-28 17:15:00,
2013-03-28 13:30:00,38.7,30.4,30.11,WNW,292,5.8,-999.0,72,-99.99,,,0.09,Acu-Link.com,2013-03-28 17:30:00,
2013-03-28 13:46:00,38.7,30.4,30.11,West,270,5.1,-999.0,72,-99.99,,,0.09,Acu-Link.com,2013-03-28 17:46:00,
2013-03-28 14:16:00,37.0,29.5,30.11,West,270,5.1,-999.0,74,-99.99,,,0.09,Acu-Link.com,2013-03-28 18:16:00,
2013-03-28 14:31:00,36.7,29.2,30.11,West,270,6.3,-999.0,74,-99.99,,,0.09,Acu-Link.com,2013-03-28 18:31:00,
2013-03-28 14:46:00,36.9,29.7,30.11,West,270,6.3,-999.0,75,-99.99,,,0.09,Acu-Link.com,2013-03-28 18:46:00,
2013-03-28 15:02:00,37.2,30.0,30.11,WSW,247,7.4,-999.0,75,-99.99,,,0.09,Acu-Link.com,2013-03-28 19:02:00,
2013-03-28 15:17:00,36.9,30.0,30.11,West,270,5.8,-999.0,76,-99.99,,,0.09,Acu-Link.com,2013-03-28 19:17:00,
2013-03-28 15:32:00,36.9,30.0,30.12,West,270,7.4,-999.0,76,-99.99,,,0.09,Acu-Link.com,2013-03-28 19:32:00,
2013-03-28 15:47:00,36.9,30.0,30.12,West,270,9.8,-999.0,76,-99.99,,,0.09,Acu-Link.com,2013-03-28 19:47:00,
2013-03-28 16:03:00,36.7,30.2,30.11,WNW,292,6.7,-999.0,77,-99.99,,,0.09,Acu-Link.com,2013-03-28 20:03:00,
2013-03-28 16:18:00,36.5,30.6,30.12,WNW,292,6.3,-999.0,79,-99.99,,,0.09,Acu-Link.com,2013-03-28 20:18:00,
2013-03-28 16:33:00,36.7,30.5,30.12,SW,225,4.7,-999.0,78,-99.99,,,0.09,Acu-Link.com,2013-03-28 20:33:00,
2013-03-28 16:48:00,36.5,30.6,30.12,West,270,5.8,-999.0,79,-99.99,,,0.09,Acu-Link.com,2013-03-28 20:48:00,
2013-03-28 17:03:00,36.3,30.1,30.12,WNW,292,7.4,-999.0,78,-99.99,,,0.09,Acu-Link.com,2013-03-28 21:03:00,
2013-03-28 17:19:00,36.5,30.3,30.12,WSW,247,5.8,-999.0,78,-99.99,,,0.09,Acu-Link.com,2013-03-28 21:19:00,
2013-03-28 17:34:00,36.5,30.3,30.12,West,270,6.7,-999.0,78,-99.99,,,0.09,Acu-Link.com,2013-03-28 21:34:00,
2013-03-28 17:49:00,36.3,30.4,30.13,WSW,247,7.4,-999.0,79,-99.99,,,0.09,Acu-Link.com,2013-03-28 21:49:00,
2013-03-28 18:04:00,36.1,30.3,30.13,West,270,8.3,-999.0,79,-99.99,,,0.09,Acu-Link.com,2013-03-28 22:04:00,
2013-03-28 18:19:00,36.0,30.1,30.13,West,270,6.7,-999.0,79,-99.99,,,0.09,Acu-Link.com,2013-03-28 22:19:00,
2013-03-28 18:35:00,36.0,30.4,30.14,West,270,6.7,-999.0,80,-99.99,,,0.09,Acu-Link.com,2013-03-28 22:35:00,
2013-03-28 18:50:00,35.6,30.4,30.15,WSW,247,5.1,-999.0,81,-99.99,,,0.09,Acu-Link.com,2013-03-28 22:50:00,
2013-03-28 19:05:00,35.4,30.2,30.15,West,270,4.7,-999.0,81,-99.99,,,0.09,Acu-Link.com,2013-03-28 23:05:00,
2013-03-28 19:20:00,35.1,30.1,30.15,West,270,3.1,-999.0,82,-99.99,,,0.09,Acu-Link.com,2013-03-28 23:20:00,
2013-03-28 19:35:00,34.7,30.1,30.16,SW,225,4.7,-999.0,83,-99.99,,,0.09,Acu-Link.com,2013-03-28 23:35:00,
2013-03-28 19:50:00,34.3,30.0,30.15,WSW,247,5.1,-999.0,84,-99.99,,,0.09,Acu-Link.com,2013-03-28 23:50:00,
2013-03-28 20:06:00,34.3,30.0,30.16,West,270,5.1,-999.0,84,-99.99,,,0.09,Acu-Link.com,2013-03-29 00:06:00,
2013-03-28 20:51:00,34.0,30.0,30.16,WSW,247,8.9,-999.0,85,-99.99,,,0.09,Acu-Link.com,2013-03-29 00:51:00,
2013-03-28 21:07:00,34.0,30.0,30.17,West,270,5.1,-999.0,85,-99.99,,,0.09,Acu-Link.com,2013-03-29 01:07:00,
2013-03-28 21:22:00,33.8,29.8,30.17,WSW,247,7.4,-999.0,85,-99.99,,,0.09,Acu-Link.com,2013-03-29 01:22:00,
2013-03-28 21:37:00,33.8,29.8,30.17,SW,225,7.4,-999.0,85,-99.99,,,0.09,Acu-Link.com,2013-03-29 01:37:00,
2013-03-28 21:52:00,34.0,29.7,30.17,SSW,202,4.3,-999.0,84,-99.99,,,0.09,Acu-Link.com,2013-03-29 01:52:00,
2013-03-28 22:08:00,34.0,29.7,30.17,WSW,247,7.4,-999.0,84,-99.99,,,0.09,Acu-Link.com,2013-03-29 02:08:00,
2013-03-28 22:23:00,34.0,29.7,30.17,SSW,202,5.8,-999.0,84,-99.99,,,0.09,Acu-Link.com,2013-03-29 02:23:00,
2013-03-28 22:38:00,33.8,29.5,30.17,West,270,6.3,-999.0,84,-99.99,,,0.09,Acu-Link.com,2013-03-29 02:38:00,
2013-03-28 22:53:00,33.6,29.3,30.17,SSW,202,5.1,-999.0,84,-99.99,,,0.09,Acu-Link.com,2013-03-29 02:53:00,
2013-03-28 23:08:00,33.6,29.3,30.17,WSW,247,5.8,-999.0,84,-99.99,,,0.09,Acu-Link.com,2013-03-29 03:08:00,
2013-03-28 23:24:00,33.6,29.3,30.17,SSW,202,5.8,-999.0,84,-99.99,,,0.09,Acu-Link.com,2013-03-29 03:24:00,
2013-03-28 23:39:00,33.6,29.3,30.17,SW,225,9.4,-999.0,84,-99.99,,,0.09,Acu-Link.com,2013-03-29 03:39:00,
2013-03-28 23:54:00,33.6,29.0,30.17,SSW,202,6.3,-999.0,83,-99.99,,,0.09,Acu-Link.com,2013-03-29 03:54:00,